sensor_id;sensor_type;location;lat;lon;timestamp;P1;durP1;ratioP1;P2;durP2;ratioP2
51957;SDS011;41120;51.820;20.804;2023-11-21T00:01:38;72.95;;;17.10;;
51957;SDS011;41120;51.820;20.804;2023-11-21T00:04:06;94.35;;;19.77;;
51957;SDS011;41120;51.820;20.804;2023-11-21T00:06:51;66.68;;;18.30;;
51957;SDS011;41120;51.820;20.804;2023-11-21T00:09:25;63.05;;;17.48;;
51957;SDS011;41120;51.820;20.804;2023-11-21T00:11:53;82.47;;;18.27;;
51957;SDS011;41120;51.820;20.804;2023-11-21T00:14:20;63.63;;;15.98;;
51957;SDS011;41120;51.820;20.804;2023-11-21T00:16:47;81.72;;;16.80;;
51957;SDS011;41120;51.820;20.804;2023-11-21T00:27:43;74.13;;;14.65;;
51957;SDS011;41120;51.820;20.804;2023-11-21T00:39:40;87.72;;;17.20;;
51957;SDS011;41120;51.820;20.804;2023-11-21T00:47:59;81.57;;;15.60;;
51957;SDS011;41120;51.820;20.804;2023-11-21T00:55:44;67.25;;;17.17;;
51957;SDS011;41120;51.820;20.804;2023-11-21T00:58:11;72.30;;;15.32;;
51957;SDS011;41120;51.820;20.804;2023-11-21T01:00:39;130.90;;;17.50;;
51957;SDS011;41120;51.820;20.804;2023-11-21T01:03:12;87.13;;;16.77;;
51957;SDS011;41120;51.820;20.804;2023-11-21T01:05:47;80.37;;;15.43;;
51957;SDS011;41120;51.820;20.804;2023-11-21T01:08:21;74.18;;;16.70;;
51957;SDS011;41120;51.820;20.804;2023-11-21T01:13:30;74.40;;;16.83;;
51957;SDS011;41120;51.820;20.804;2023-11-21T01:15:57;79.30;;;15.35;;
51957;SDS011;41120;51.820;20.804;2023-11-21T01:21:35;86.95;;;16.85;;
51957;SDS011;41120;51.820;20.804;2023-11-21T01:24:01;95.10;;;15.85;;
51957;SDS011;41120;51.820;20.804;2023-11-21T01:26:43;60.20;;;13.75;;
51957;SDS011;41120;51.820;20.804;2023-11-21T01:29:13;70.15;;;15.18;;
51957;SDS011;41120;51.820;20.804;2023-11-21T01:31:42;64.03;;;16.20;;
51957;SDS011;41120;51.820;20.804;2023-11-21T01:37:12;73.63;;;14.88;;
51957;SDS011;41120;51.820;20.804;2023-11-21T01:39:48;60.78;;;14.98;;
51957;SDS011;41120;51.820;20.804;2023-11-21T01:42:24;61.83;;;15.50;;
51957;SDS011;41120;51.820;20.804;2023-11-21T01:44:51;76.53;;;16.73;;
51957;SDS011;41120;51.820;20.804;2023-11-21T01:52:54;101.97;;;17.50;;
51957;SDS011;41120;51.820;20.804;2023-11-21T01:55:30;71.38;;;15.00;;
51957;SDS011;41120;51.820;20.804;2023-11-21T01:58:05;95.20;;;16.85;;
51957;SDS011;41120;51.820;20.804;2023-11-21T02:00:33;64.60;;;15.88;;
51957;SDS011;41120;51.820;20.804;2023-11-21T02:09:11;56.10;;;14.40;;
51957;SDS011;41120;51.820;20.804;2023-11-21T02:11:42;66.55;;;16.98;;
51957;SDS011;41120;51.820;20.804;2023-11-21T02:14:17;64.00;;;17.40;;
51957;SDS011;41120;51.820;20.804;2023-11-21T02:20:19;77.90;;;17.67;;
51957;SDS011;41120;51.820;20.804;2023-11-21T02:25:49;77.75;;;16.27;;
51957;SDS011;41120;51.820;20.804;2023-11-21T02:28:22;68.53;;;17.17;;
51957;SDS011;41120;51.820;20.804;2023-11-21T02:30:57;85.13;;;16.15;;
51957;SDS011;41120;51.820;20.804;2023-11-21T02:39:32;93.22;;;16.77;;
51957;SDS011;41120;51.820;20.804;2023-11-21T02:42:06;69.70;;;16.27;;
51957;SDS011;41120;51.820;20.804;2023-11-21T02:44:34;75.43;;;16.08;;
51957;SDS011;41120;51.820;20.804;2023-11-21T02:47:06;76.07;;;16.73;;
51957;SDS011;41120;51.820;20.804;2023-11-21T02:55:22;85.10;;;17.55;;
51957;SDS011;41120;51.820;20.804;2023-11-21T02:58:00;69.88;;;15.98;;
51957;SDS011;41120;51.820;20.804;2023-11-21T03:06:12;72.03;;;16.90;;
51957;SDS011;41120;51.820;20.804;2023-11-21T03:08:53;56.28;;;16.52;;
51957;SDS011;41120;51.820;20.804;2023-11-21T03:11:20;79.95;;;16.75;;
51957;SDS011;41120;51.820;20.804;2023-11-21T03:14:03;85.68;;;16.75;;
51957;SDS011;41120;51.820;20.804;2023-11-21T03:16:36;69.78;;;16.40;;
51957;SDS011;41120;51.820;20.804;2023-11-21T03:19:06;100.50;;;17.48;;
51957;SDS011;41120;51.820;20.804;2023-11-21T03:27:21;71.13;;;18.88;;
51957;SDS011;41120;51.820;20.804;2023-11-21T03:29:48;75.22;;;20.13;;
51957;SDS011;41120;51.820;20.804;2023-11-21T03:34:54;94.97;;;19.67;;
51957;SDS011;41120;51.820;20.804;2023-11-21T03:40:22;77.05;;;18.58;;
51957;SDS011;41120;51.820;20.804;2023-11-21T03:42:54;122.77;;;21.43;;
51957;SDS011;41120;51.820;20.804;2023-11-21T03:48:32;92.05;;;19.10;;
51957;SDS011;41120;51.820;20.804;2023-11-21T03:51:01;80.95;;;17.63;;
51957;SDS011;41120;51.820;20.804;2023-11-21T04:05:38;85.88;;;21.85;;
51957;SDS011;41120;51.820;20.804;2023-11-21T04:08:05;115.10;;;22.60;;
51957;SDS011;41120;51.820;20.804;2023-11-21T04:10:42;93.63;;;21.53;;
51957;SDS011;41120;51.820;20.804;2023-11-21T04:15:54;120.50;;;22.80;;
51957;SDS011;41120;51.820;20.804;2023-11-21T04:23:55;87.20;;;22.17;;
51957;SDS011;41120;51.820;20.804;2023-11-21T04:31:57;83.25;;;23.30;;
51957;SDS011;41120;51.820;20.804;2023-11-21T04:39:23;95.07;;;23.75;;
51957;SDS011;41120;51.820;20.804;2023-11-21T04:44:53;126.88;;;24.05;;
51957;SDS011;41120;51.820;20.804;2023-11-21T04:50:18;86.05;;;23.98;;
51957;SDS011;41120;51.820;20.804;2023-11-21T04:55:43;97.82;;;24.45;;
51957;SDS011;41120;51.820;20.804;2023-11-21T04:58:11;95.05;;;25.85;;
51957;SDS011;41120;51.820;20.804;2023-11-21T05:00:40;83.72;;;26.15;;
51957;SDS011;41120;51.820;20.804;2023-11-21T05:03:12;72.53;;;23.00;;
51957;SDS011;41120;51.820;20.804;2023-11-21T05:08:13;64.30;;;22.13;;
51957;SDS011;41120;51.820;20.804;2023-11-21T05:13:36;57.72;;;20.80;;
51957;SDS011;41120;51.820;20.804;2023-11-21T05:16:03;54.50;;;20.30;;
51957;SDS011;41120;51.820;20.804;2023-11-21T05:18:35;58.78;;;20.90;;
51957;SDS011;41120;51.820;20.804;2023-11-21T05:21:12;60.28;;;22.63;;
51957;SDS011;41120;51.820;20.804;2023-11-21T05:23:38;56.50;;;21.33;;
51957;SDS011;41120;51.820;20.804;2023-11-21T05:28:57;53.15;;;20.33;;
51957;SDS011;41120;51.820;20.804;2023-11-21T05:34:29;51.35;;;19.02;;
51957;SDS011;41120;51.820;20.804;2023-11-21T05:36:56;51.03;;;20.05;;
51957;SDS011;41120;51.820;20.804;2023-11-21T05:39:23;51.10;;;19.88;;
51957;SDS011;41120;51.820;20.804;2023-11-21T05:41:57;52.10;;;20.40;;
51957;SDS011;41120;51.820;20.804;2023-11-21T05:47:11;47.95;;;19.77;;
51957;SDS011;41120;51.820;20.804;2023-11-21T05:52:13;43.92;;;17.70;;
51957;SDS011;41120;51.820;20.804;2023-11-21T05:54:48;49.53;;;20.38;;
51957;SDS011;41120;51.820;20.804;2023-11-21T06:05:54;49.92;;;20.23;;
51957;SDS011;41120;51.820;20.804;2023-11-21T06:14:16;41.15;;;17.75;;
51957;SDS011;41120;51.820;20.804;2023-11-21T06:20:05;38.78;;;15.88;;
51957;SDS011;41120;51.820;20.804;2023-11-21T06:22:44;43.80;;;17.80;;
51957;SDS011;41120;51.820;20.804;2023-11-21T06:25:11;46.65;;;17.48;;
51957;SDS011;41120;51.820;20.804;2023-11-21T06:27:47;41.50;;;17.17;;
51957;SDS011;41120;51.820;20.804;2023-11-21T06:30:22;44.17;;;17.98;;
51957;SDS011;41120;51.820;20.804;2023-11-21T06:32:50;45.33;;;17.83;;
51957;SDS011;41120;51.820;20.804;2023-11-21T06:35:16;40.70;;;17.05;;
51957;SDS011;41120;51.820;20.804;2023-11-21T06:37:50;44.93;;;17.03;;
51957;SDS011;41120;51.820;20.804;2023-11-21T06:40:18;42.22;;;17.08;;
51957;SDS011;41120;51.820;20.804;2023-11-21T06:48:40;45.30;;;18.23;;
51957;SDS011;41120;51.820;20.804;2023-11-21T06:56:41;46.08;;;17.35;;
51957;SDS011;41120;51.820;20.804;2023-11-21T06:59:17;37.15;;;15.00;;
51957;SDS011;41120;51.820;20.804;2023-11-21T07:07:10;34.50;;;14.20;;
51957;SDS011;41120;51.820;20.804;2023-11-21T07:09:44;32.30;;;13.63;;
51957;SDS011;41120;51.820;20.804;2023-11-21T07:12:26;31.42;;;12.88;;
51957;SDS011;41120;51.820;20.804;2023-11-21T07:17:38;30.73;;;13.80;;
51957;SDS011;41120;51.820;20.804;2023-11-21T07:20:12;31.33;;;13.32;;
51957;SDS011;41120;51.820;20.804;2023-11-21T07:25:07;29.08;;;13.15;;
51957;SDS011;41120;51.820;20.804;2023-11-21T07:27:37;34.47;;;14.38;;
51957;SDS011;41120;51.820;20.804;2023-11-21T07:30:04;35.42;;;14.85;;
51957;SDS011;41120;51.820;20.804;2023-11-21T07:32:33;32.20;;;14.48;;
51957;SDS011;41120;51.820;20.804;2023-11-21T07:34:59;37.13;;;15.32;;
51957;SDS011;41120;51.820;20.804;2023-11-21T07:37:29;33.00;;;14.85;;
51957;SDS011;41120;51.820;20.804;2023-11-21T07:40:02;37.15;;;15.77;;
51957;SDS011;41120;51.820;20.804;2023-11-21T07:42:34;38.70;;;15.18;;
51957;SDS011;41120;51.820;20.804;2023-11-21T07:50:18;33.20;;;14.18;;
51957;SDS011;41120;51.820;20.804;2023-11-21T07:55:51;36.20;;;14.27;;
51957;SDS011;41120;51.820;20.804;2023-11-21T08:01:42;37.22;;;16.02;;
51957;SDS011;41120;51.820;20.804;2023-11-21T08:04:16;33.05;;;14.35;;
51957;SDS011;41120;51.820;20.804;2023-11-21T08:19:35;28.27;;;13.50;;
51957;SDS011;41120;51.820;20.804;2023-11-21T08:25:18;27.33;;;13.82;;
51957;SDS011;41120;51.820;20.804;2023-11-21T08:31:03;28.92;;;12.75;;
51957;SDS011;41120;51.820;20.804;2023-11-21T08:33:49;26.70;;;13.18;;
51957;SDS011;41120;51.820;20.804;2023-11-21T08:36:16;42.22;;;17.05;;
51957;SDS011;41120;51.820;20.804;2023-11-21T08:38:51;31.58;;;14.50;;
51957;SDS011;41120;51.820;20.804;2023-11-21T08:41:25;32.55;;;14.57;;
51957;SDS011;41120;51.820;20.804;2023-11-21T08:44:01;29.60;;;13.95;;
51957;SDS011;41120;51.820;20.804;2023-11-21T08:46:28;33.03;;;15.00;;
51957;SDS011;41120;51.820;20.804;2023-11-21T08:49:05;34.30;;;14.57;;
51957;SDS011;41120;51.820;20.804;2023-11-21T08:51:33;33.55;;;14.70;;
51957;SDS011;41120;51.820;20.804;2023-11-21T08:56:57;31.33;;;14.98;;
51957;SDS011;41120;51.820;20.804;2023-11-21T08:59:29;30.15;;;14.77;;
51957;SDS011;41120;51.820;20.804;2023-11-21T09:01:56;35.38;;;15.25;;
51957;SDS011;41120;51.820;20.804;2023-11-21T09:10:12;39.85;;;16.40;;
51957;SDS011;41120;51.820;20.804;2023-11-21T09:12:44;33.63;;;15.65;;
51957;SDS011;41120;51.820;20.804;2023-11-21T09:18:03;31.02;;;14.05;;
51957;SDS011;41120;51.820;20.804;2023-11-21T09:20:35;28.42;;;12.75;;
51957;SDS011;41120;51.820;20.804;2023-11-21T09:26:11;26.08;;;13.32;;
51957;SDS011;41120;51.820;20.804;2023-11-21T09:34:39;25.08;;;11.18;;
51957;SDS011;41120;51.820;20.804;2023-11-21T09:40:35;23.85;;;12.30;;
51957;SDS011;41120;51.820;20.804;2023-11-21T09:46:01;26.05;;;12.05;;
51957;SDS011;41120;51.820;20.804;2023-11-21T09:48:38;23.83;;;12.35;;
51957;SDS011;41120;51.820;20.804;2023-11-21T09:51:19;23.55;;;11.98;;
51957;SDS011;41120;51.820;20.804;2023-11-21T09:54:00;21.85;;;12.02;;
51957;SDS011;41120;51.820;20.804;2023-11-21T09:59:25;21.15;;;10.88;;
51957;SDS011;41120;51.820;20.804;2023-11-21T10:02:01;22.40;;;10.75;;
51957;SDS011;41120;51.820;20.804;2023-11-21T10:04:37;19.27;;;10.75;;
51957;SDS011;41120;51.820;20.804;2023-11-21T10:10:02;21.23;;;10.93;;
51957;SDS011;41120;51.820;20.804;2023-11-21T10:12:28;19.33;;;9.35;;
51957;SDS011;41120;51.820;20.804;2023-11-21T10:18:06;18.77;;;10.23;;
51957;SDS011;41120;51.820;20.804;2023-11-21T10:20:43;19.45;;;9.82;;
51957;SDS011;41120;51.820;20.804;2023-11-21T10:25:55;20.92;;;10.57;;
51957;SDS011;41120;51.820;20.804;2023-11-21T10:28:21;28.27;;;12.97;;
51957;SDS011;41120;51.820;20.804;2023-11-21T10:30:47;28.70;;;13.50;;
51957;SDS011;41120;51.820;20.804;2023-11-21T10:33:13;26.73;;;12.20;;
51957;SDS011;41120;51.820;20.804;2023-11-21T10:35:42;26.25;;;12.55;;
51957;SDS011;41120;51.820;20.804;2023-11-21T10:38:13;25.77;;;12.60;;
51957;SDS011;41120;51.820;20.804;2023-11-21T10:40:40;26.65;;;12.25;;
51957;SDS011;41120;51.820;20.804;2023-11-21T10:43:06;26.27;;;11.52;;
51957;SDS011;41120;51.820;20.804;2023-11-21T10:45:39;23.98;;;11.80;;
51957;SDS011;41120;51.820;20.804;2023-11-21T10:48:06;24.63;;;11.75;;
51957;SDS011;41120;51.820;20.804;2023-11-21T10:50:34;26.10;;;12.48;;
51957;SDS011;41120;51.820;20.804;2023-11-21T10:53:02;23.25;;;11.13;;
51957;SDS011;41120;51.820;20.804;2023-11-21T10:55:29;22.95;;;11.82;;
51957;SDS011;41120;51.820;20.804;2023-11-21T11:00:30;22.70;;;13.15;;
51957;SDS011;41120;51.820;20.804;2023-11-21T11:03:11;20.70;;;11.82;;
51957;SDS011;41120;51.820;20.804;2023-11-21T11:08:27;26.83;;;14.40;;
51957;SDS011;41120;51.820;20.804;2023-11-21T11:10:54;24.65;;;13.95;;
51957;SDS011;41120;51.820;20.804;2023-11-21T11:13:23;27.95;;;13.38;;
51957;SDS011;41120;51.820;20.804;2023-11-21T11:16:01;21.60;;;11.68;;
51957;SDS011;41120;51.820;20.804;2023-11-21T11:32:06;26.27;;;13.05;;
51957;SDS011;41120;51.820;20.804;2023-11-21T11:34:48;25.83;;;13.57;;
51957;SDS011;41120;51.820;20.804;2023-11-21T11:37:33;23.40;;;13.20;;
51957;SDS011;41120;51.820;20.804;2023-11-21T11:40:05;27.00;;;14.73;;
51957;SDS011;41120;51.820;20.804;2023-11-21T11:42:32;27.85;;;15.25;;
51957;SDS011;41120;51.820;20.804;2023-11-21T11:44:58;33.07;;;17.90;;
51957;SDS011;41120;51.820;20.804;2023-11-21T11:47:25;33.63;;;16.92;;
51957;SDS011;41120;51.820;20.804;2023-11-21T11:49:57;34.60;;;16.85;;
51957;SDS011;41120;51.820;20.804;2023-11-21T11:52:39;36.03;;;17.45;;
51957;SDS011;41120;51.820;20.804;2023-11-21T11:55:09;29.77;;;16.65;;
51957;SDS011;41120;51.820;20.804;2023-11-21T11:57:40;36.35;;;17.52;;
51957;SDS011;41120;51.820;20.804;2023-11-21T12:02:58;36.70;;;18.48;;
51957;SDS011;41120;51.820;20.804;2023-11-21T12:22:16;32.58;;;16.88;;
51957;SDS011;41120;51.820;20.804;2023-11-21T12:27:29;37.47;;;19.05;;
51957;SDS011;41120;51.820;20.804;2023-11-21T12:32:43;41.33;;;21.85;;
51957;SDS011;41120;51.820;20.804;2023-11-21T12:35:11;38.05;;;18.98;;
51957;SDS011;41120;51.820;20.804;2023-11-21T12:40:47;41.40;;;20.73;;
51957;SDS011;41120;51.820;20.804;2023-11-21T12:43:14;40.15;;;20.33;;
51957;SDS011;41120;51.820;20.804;2023-11-21T12:45:41;44.58;;;21.20;;
51957;SDS011;41120;51.820;20.804;2023-11-21T12:51:13;38.65;;;19.23;;
51957;SDS011;41120;51.820;20.804;2023-11-21T12:53:49;43.05;;;22.13;;
51957;SDS011;41120;51.820;20.804;2023-11-21T12:56:15;40.30;;;20.85;;
51957;SDS011;41120;51.820;20.804;2023-11-21T13:02:06;38.92;;;18.55;;
51957;SDS011;41120;51.820;20.804;2023-11-21T13:04:43;37.88;;;18.77;;
51957;SDS011;41120;51.820;20.804;2023-11-21T13:07:22;45.25;;;20.60;;
51957;SDS011;41120;51.820;20.804;2023-11-21T13:09:57;38.05;;;19.30;;
51957;SDS011;41120;51.820;20.804;2023-11-21T13:12:26;39.65;;;19.75;;
51957;SDS011;41120;51.820;20.804;2023-11-21T13:14:53;41.20;;;19.73;;
51957;SDS011;41120;51.820;20.804;2023-11-21T13:17:18;43.93;;;21.27;;
51957;SDS011;41120;51.820;20.804;2023-11-21T13:19:47;39.38;;;19.42;;
51957;SDS011;41120;51.820;20.804;2023-11-21T13:22:13;40.20;;;21.17;;
51957;SDS011;41120;51.820;20.804;2023-11-21T13:24:39;39.08;;;19.35;;
51957;SDS011;41120;51.820;20.804;2023-11-21T13:27:11;42.40;;;20.57;;
51957;SDS011;41120;51.820;20.804;2023-11-21T13:35:38;39.08;;;19.33;;
51957;SDS011;41120;51.820;20.804;2023-11-21T13:41:06;40.95;;;20.55;;
51957;SDS011;41120;51.820;20.804;2023-11-21T13:46:13;40.85;;;20.50;;
51957;SDS011;41120;51.820;20.804;2023-11-21T13:51:47;41.03;;;19.92;;
51957;SDS011;41120;51.820;20.804;2023-11-21T13:57:04;43.13;;;20.38;;
51957;SDS011;41120;51.820;20.804;2023-11-21T13:59:31;40.70;;;18.58;;
51957;SDS011;41120;51.820;20.804;2023-11-21T14:01:59;40.80;;;19.15;;
51957;SDS011;41120;51.820;20.804;2023-11-21T14:04:26;38.35;;;18.88;;
51957;SDS011;41120;51.820;20.804;2023-11-21T14:16:19;42.58;;;20.27;;
51957;SDS011;41120;51.820;20.804;2023-11-21T14:21:33;44.63;;;21.52;;
51957;SDS011;41120;51.820;20.804;2023-11-21T14:24:00;48.55;;;23.38;;
51957;SDS011;41120;51.820;20.804;2023-11-21T14:26:26;51.05;;;25.23;;
51957;SDS011;41120;51.820;20.804;2023-11-21T14:28:55;49.58;;;25.45;;
51957;SDS011;41120;51.820;20.804;2023-11-21T14:31:23;49.22;;;25.00;;
51957;SDS011;41120;51.820;20.804;2023-11-21T14:33:49;51.45;;;23.70;;
51957;SDS011;41120;51.820;20.804;2023-11-21T14:36:15;58.23;;;25.80;;
51957;SDS011;41120;51.820;20.804;2023-11-21T14:38:43;52.35;;;24.00;;
51957;SDS011;41120;51.820;20.804;2023-11-21T14:41:10;59.72;;;24.55;;
51957;SDS011;41120;51.820;20.804;2023-11-21T14:48:49;46.08;;;21.60;;
51957;SDS011;41120;51.820;20.804;2023-11-21T14:51:51;42.15;;;20.13;;
51957;SDS011;41120;51.820;20.804;2023-11-21T14:57:13;43.13;;;20.83;;
51957;SDS011;41120;51.820;20.804;2023-11-21T15:02:20;45.30;;;21.10;;
51957;SDS011;41120;51.820;20.804;2023-11-21T15:07:41;47.78;;;23.17;;
51957;SDS011;41120;51.820;20.804;2023-11-21T15:10:15;43.97;;;21.45;;
51957;SDS011;41120;51.820;20.804;2023-11-21T15:12:43;40.78;;;21.08;;
51957;SDS011;41120;51.820;20.804;2023-11-21T15:29:08;56.45;;;25.30;;
51957;SDS011;41120;51.820;20.804;2023-11-21T15:31:35;51.08;;;22.77;;
51957;SDS011;41120;51.820;20.804;2023-11-21T15:34:02;49.13;;;24.50;;
51957;SDS011;41120;51.820;20.804;2023-11-21T15:36:31;55.65;;;26.70;;
51957;SDS011;41120;51.820;20.804;2023-11-21T15:38:57;58.77;;;26.13;;
51957;SDS011;41120;51.820;20.804;2023-11-21T15:41:24;51.17;;;23.85;;
51957;SDS011;41120;51.820;20.804;2023-11-21T15:46:38;52.88;;;23.67;;
51957;SDS011;41120;51.820;20.804;2023-11-21T15:49:07;48.03;;;23.63;;
51957;SDS011;41120;51.820;20.804;2023-11-21T15:51:39;51.53;;;21.70;;
51957;SDS011;41120;51.820;20.804;2023-11-21T15:54:07;44.60;;;20.63;;
51957;SDS011;41120;51.820;20.804;2023-11-21T15:56:34;95.00;;;50.38;;
51957;SDS011;41120;51.820;20.804;2023-11-21T15:59:18;53.65;;;25.35;;
51957;SDS011;41120;51.820;20.804;2023-11-21T16:04:23;56.88;;;27.23;;
51957;SDS011;41120;51.820;20.804;2023-11-21T16:06:55;58.97;;;29.08;;
51957;SDS011;41120;51.820;20.804;2023-11-21T16:09:25;53.03;;;22.20;;
51957;SDS011;41120;51.820;20.804;2023-11-21T16:11:58;52.17;;;22.42;;
51957;SDS011;41120;51.820;20.804;2023-11-21T16:14:27;57.08;;;25.20;;
51957;SDS011;41120;51.820;20.804;2023-11-21T16:17:01;45.75;;;20.88;;
51957;SDS011;41120;51.820;20.804;2023-11-21T16:19:27;47.03;;;23.35;;
51957;SDS011;41120;51.820;20.804;2023-11-21T16:21:53;54.00;;;25.27;;
51957;SDS011;41120;51.820;20.804;2023-11-21T16:24:19;59.80;;;24.50;;
51957;SDS011;41120;51.820;20.804;2023-11-21T16:32:19;78.45;;;32.25;;
51957;SDS011;41120;51.820;20.804;2023-11-21T16:34:45;58.22;;;25.55;;
51957;SDS011;41120;51.820;20.804;2023-11-21T16:37:12;61.93;;;24.63;;
51957;SDS011;41120;51.820;20.804;2023-11-21T16:39:39;58.65;;;25.90;;
51957;SDS011;41120;51.820;20.804;2023-11-21T16:42:07;47.05;;;22.25;;
51957;SDS011;41120;51.820;20.804;2023-11-21T16:44:40;51.33;;;24.15;;
51957;SDS011;41120;51.820;20.804;2023-11-21T16:47:08;65.03;;;29.42;;
51957;SDS011;41120;51.820;20.804;2023-11-21T16:49:37;56.42;;;25.83;;
51957;SDS011;41120;51.820;20.804;2023-11-21T16:52:17;47.47;;;22.23;;
51957;SDS011;41120;51.820;20.804;2023-11-21T16:54:51;42.60;;;20.20;;
51957;SDS011;41120;51.820;20.804;2023-11-21T16:57:21;49.33;;;23.33;;
51957;SDS011;41120;51.820;20.804;2023-11-21T16:59:55;45.70;;;21.15;;
51957;SDS011;41120;51.820;20.804;2023-11-21T17:02:24;41.15;;;19.63;;
51957;SDS011;41120;51.820;20.804;2023-11-21T17:04:51;52.50;;;23.23;;
51957;SDS011;41120;51.820;20.804;2023-11-21T17:07:34;35.78;;;16.27;;
51957;SDS011;41120;51.820;20.804;2023-11-21T17:13:17;38.60;;;17.08;;
51957;SDS011;41120;51.820;20.804;2023-11-21T17:15:44;47.17;;;22.13;;
51957;SDS011;41120;51.820;20.804;2023-11-21T17:18:12;50.03;;;21.48;;
51957;SDS011;41120;51.820;20.804;2023-11-21T17:20:38;53.25;;;24.35;;
51957;SDS011;41120;51.820;20.804;2023-11-21T17:23:04;52.72;;;24.58;;
51957;SDS011;41120;51.820;20.804;2023-11-21T17:25:34;52.65;;;23.17;;
51957;SDS011;41120;51.820;20.804;2023-11-21T17:28:04;58.20;;;25.25;;
51957;SDS011;41120;51.820;20.804;2023-11-21T17:30:31;64.32;;;23.25;;
51957;SDS011;41120;51.820;20.804;2023-11-21T17:33:07;60.80;;;27.50;;
51957;SDS011;41120;51.820;20.804;2023-11-21T17:35:33;50.83;;;24.23;;
51957;SDS011;41120;51.820;20.804;2023-11-21T17:37:59;42.85;;;21.08;;
51957;SDS011;41120;51.820;20.804;2023-11-21T17:40:30;42.28;;;19.88;;
51957;SDS011;41120;51.820;20.804;2023-11-21T17:43:11;42.35;;;20.67;;
51957;SDS011;41120;51.820;20.804;2023-11-21T17:45:47;54.65;;;23.67;;
51957;SDS011;41120;51.820;20.804;2023-11-21T17:48:26;59.53;;;24.52;;
51957;SDS011;41120;51.820;20.804;2023-11-21T17:54:13;35.38;;;16.83;;
51957;SDS011;41120;51.820;20.804;2023-11-21T17:59:30;46.45;;;21.30;;
51957;SDS011;41120;51.820;20.804;2023-11-21T18:01:59;42.30;;;19.08;;
51957;SDS011;41120;51.820;20.804;2023-11-21T18:10:11;38.83;;;17.85;;
51957;SDS011;41120;51.820;20.804;2023-11-21T18:12:44;46.45;;;21.67;;
51957;SDS011;41120;51.820;20.804;2023-11-21T18:15:23;40.85;;;19.17;;
51957;SDS011;41120;51.820;20.804;2023-11-21T18:17:59;38.85;;;18.52;;
51957;SDS011;41120;51.820;20.804;2023-11-21T18:20:32;40.97;;;19.42;;
51957;SDS011;41120;51.820;20.804;2023-11-21T18:23:05;30.50;;;14.15;;
51957;SDS011;41120;51.820;20.804;2023-11-21T18:28:09;34.63;;;16.70;;
51957;SDS011;41120;51.820;20.804;2023-11-21T18:36:15;41.75;;;18.00;;
51957;SDS011;41120;51.820;20.804;2023-11-21T18:38:41;49.83;;;20.03;;
51957;SDS011;41120;51.820;20.804;2023-11-21T18:41:09;34.75;;;15.68;;
51957;SDS011;41120;51.820;20.804;2023-11-21T18:43:35;28.73;;;13.25;;
51957;SDS011;41120;51.820;20.804;2023-11-21T18:46:02;29.00;;;14.25;;
51957;SDS011;41120;51.820;20.804;2023-11-21T18:48:31;27.92;;;15.05;;
51957;SDS011;41120;51.820;20.804;2023-11-21T18:50:58;24.48;;;12.73;;
51957;SDS011;41120;51.820;20.804;2023-11-21T18:53:25;26.23;;;12.98;;
51957;SDS011;41120;51.820;20.804;2023-11-21T18:56:17;29.92;;;14.30;;
51957;SDS011;41120;51.820;20.804;2023-11-21T18:58:52;30.40;;;14.38;;
51957;SDS011;41120;51.820;20.804;2023-11-21T19:04:28;23.92;;;12.95;;
51957;SDS011;41120;51.820;20.804;2023-11-21T19:09:45;26.92;;;12.48;;
51957;SDS011;41120;51.820;20.804;2023-11-21T19:12:14;25.92;;;12.00;;
51957;SDS011;41120;51.820;20.804;2023-11-21T19:14:42;25.23;;;12.00;;
51957;SDS011;41120;51.820;20.804;2023-11-21T19:19:40;27.35;;;12.65;;
51957;SDS011;41120;51.820;20.804;2023-11-21T19:22:07;24.05;;;11.45;;
51957;SDS011;41120;51.820;20.804;2023-11-21T19:24:41;22.85;;;11.65;;
51957;SDS011;41120;51.820;20.804;2023-11-21T19:27:08;26.80;;;11.98;;
51957;SDS011;41120;51.820;20.804;2023-11-21T19:32:59;24.83;;;11.48;;
51957;SDS011;41120;51.820;20.804;2023-11-21T19:35:31;23.05;;;11.07;;
51957;SDS011;41120;51.820;20.804;2023-11-21T19:38:05;25.05;;;11.63;;
51957;SDS011;41120;51.820;20.804;2023-11-21T19:43:48;20.55;;;9.98;;
51957;SDS011;41120;51.820;20.804;2023-11-21T19:46:15;20.23;;;11.82;;
51957;SDS011;41120;51.820;20.804;2023-11-21T19:48:49;18.75;;;9.35;;
51957;SDS011;41120;51.820;20.804;2023-11-21T19:54:10;22.02;;;9.93;;
51957;SDS011;41120;51.820;20.804;2023-11-21T19:59:06;24.17;;;11.38;;
51957;SDS011;41120;51.820;20.804;2023-11-21T20:01:38;24.77;;;11.68;;
51957;SDS011;41120;51.820;20.804;2023-11-21T20:04:06;24.95;;;12.23;;
51957;SDS011;41120;51.820;20.804;2023-11-21T20:09:07;31.17;;;15.45;;
51957;SDS011;41120;51.820;20.804;2023-11-21T20:14:40;30.17;;;13.73;;
51957;SDS011;41120;51.820;20.804;2023-11-21T20:20:07;26.98;;;13.57;;
51957;SDS011;41120;51.820;20.804;2023-11-21T20:22:34;26.25;;;13.60;;
51957;SDS011;41120;51.820;20.804;2023-11-21T20:25:04;28.85;;;13.40;;
51957;SDS011;41120;51.820;20.804;2023-11-21T20:27:42;27.52;;;14.65;;
51957;SDS011;41120;51.820;20.804;2023-11-21T20:35:41;25.70;;;11.82;;
51957;SDS011;41120;51.820;20.804;2023-11-21T20:40:42;30.80;;;14.80;;
51957;SDS011;41120;51.820;20.804;2023-11-21T20:43:26;27.10;;;13.05;;
51957;SDS011;41120;51.820;20.804;2023-11-21T20:45:55;25.70;;;12.75;;
51957;SDS011;41120;51.820;20.804;2023-11-21T20:48:29;26.67;;;12.90;;
51957;SDS011;41120;51.820;20.804;2023-11-21T20:51:05;29.38;;;13.50;;
51957;SDS011;41120;51.820;20.804;2023-11-21T20:53:37;27.63;;;12.20;;
51957;SDS011;41120;51.820;20.804;2023-11-21T20:56:04;28.23;;;12.68;;
51957;SDS011;41120;51.820;20.804;2023-11-21T20:58:42;32.10;;;13.52;;
51957;SDS011;41120;51.820;20.804;2023-11-21T21:04:00;28.08;;;13.15;;
51957;SDS011;41120;51.820;20.804;2023-11-21T21:06:29;30.20;;;14.25;;
51957;SDS011;41120;51.820;20.804;2023-11-21T21:09:12;30.17;;;13.65;;
51957;SDS011;41120;51.820;20.804;2023-11-21T21:11:43;25.17;;;13.45;;
51957;SDS011;41120;51.820;20.804;2023-11-21T21:14:09;26.10;;;12.77;;
51957;SDS011;41120;51.820;20.804;2023-11-21T21:16:40;30.73;;;12.85;;
51957;SDS011;41120;51.820;20.804;2023-11-21T21:19:12;27.92;;;12.82;;
51957;SDS011;41120;51.820;20.804;2023-11-21T21:21:51;25.48;;;11.27;;
51957;SDS011;41120;51.820;20.804;2023-11-21T21:24:19;22.77;;;9.90;;
51957;SDS011;41120;51.820;20.804;2023-11-21T21:29:20;23.80;;;10.88;;
51957;SDS011;41120;51.820;20.804;2023-11-21T21:31:56;25.73;;;10.50;;
51957;SDS011;41120;51.820;20.804;2023-11-21T21:36:52;23.48;;;11.80;;
51957;SDS011;41120;51.820;20.804;2023-11-21T21:39:19;23.87;;;10.70;;
51957;SDS011;41120;51.820;20.804;2023-11-21T21:41:51;23.70;;;11.18;;
51957;SDS011;41120;51.820;20.804;2023-11-21T21:49:29;25.17;;;9.52;;
51957;SDS011;41120;51.820;20.804;2023-11-21T21:52:00;23.42;;;10.80;;
51957;SDS011;41120;51.820;20.804;2023-11-21T21:54:29;22.15;;;10.88;;
51957;SDS011;41120;51.820;20.804;2023-11-21T21:56:55;33.22;;;10.93;;